Terminal Aerodrome Forecast
Issued by NWS Quad Cities IA IL

Home | Current Version | Previous Version | Text Only | Print | Product List | Glossary On
Versions: 1 2 3 4 5 6 7 8 9 10 11 12 13 14 15 16 17 18 19 20 21 22 23 24 25 26
000
FTUS43 KDVN 072320
TAFDBQ
TAF
KDBQ 072320Z 0800/0824 01007KT P6SM BKN045
     FM080200 04004KT P6SM SKC
     FM080600 08003KT 6SM BR SKC
     FM080900 08003KT 4SM BR SKC
     FM081400 09006KT P6SM BKN150=

USA.gov is the U.S. government's official web portal to all federal, state and local government web resources and services.